Portada
METAR-TAF:

METAR-TAF

Aeropuertos :

Aeropuerto Internacional de la Reina Alia

Amán-Queen Alia, Jordania

latitud: 31-40N, longitud: 035-58E, altitud: 721 m

Observación

El informe se hizo hace 18 minutos, a las 22:00 UTC
Viento 6 kt del suroeste
Temperatura 18°C
Humedad 32%
Presión 1017 hPa
Visibilidad: 5000 m
calima

METAR: OJAI 062200Z 22006KT 5000 HZ NSC 18/01 Q1017 NOSIG

Hora: 01:18 (22:18 UTC)

Pronóstico

El informe se hizo hace 5 horas y 28 minutos, a las 16:50 UTC
Pronóstico válido del 06 a las 18 UTC al 07 a las 24 UTC
Viento 12 kt del oeste-noroeste
Visibilidad: 7000 m

TAF: OJAI 061650Z 0618/0724 30012KT 7000 NSC

Observaciones y pronósticos meteorológicos de más de 4000 aeropuertos (mensajes METAR y TAF).

Los puntos amarillos y rojos representan las estaciones disponibles.

Ponga el ratón en el punto deseado para ver el nombre de la estación.

Haga clic para ver las observaciones y los pronósticos meteorológicos.

Para cambiar el mapa : haga clic en los botones verdes con una cruz de color negro para hacer un zoom, en el botón verde con un guión para alejar o en las flechas verdes para mapas adyacentes.


METAR-TAF: